sensor_id;sensor_type;location;lat;lon;timestamp;P1;durP1;ratioP1;P2;durP2;ratioP2
4198;SDS011;2113;50.946;14.610;2023-08-12T00:00:47;8.18;;;6.00;;
4198;SDS011;2113;50.946;14.610;2023-08-12T00:03:16;15.07;;;7.03;;
4198;SDS011;2113;50.946;14.610;2023-08-12T00:05:45;8.48;;;6.45;;
4198;SDS011;2113;50.946;14.610;2023-08-12T00:08:13;8.23;;;5.70;;
4198;SDS011;2113;50.946;14.610;2023-08-12T00:10:41;7.25;;;6.50;;
4198;SDS011;2113;50.946;14.610;2023-08-12T00:13:10;10.20;;;6.20;;
4198;SDS011;2113;50.946;14.610;2023-08-12T00:15:42;10.80;;;7.28;;
4198;SDS011;2113;50.946;14.610;2023-08-12T00:18:11;13.80;;;6.20;;
4198;SDS011;2113;50.946;14.610;2023-08-12T00:20:39;10.30;;;6.10;;
4198;SDS011;2113;50.946;14.610;2023-08-12T00:23:07;11.15;;;7.15;;
4198;SDS011;2113;50.946;14.610;2023-08-12T00:25:36;8.82;;;6.40;;
4198;SDS011;2113;50.946;14.610;2023-08-12T00:28:05;7.90;;;6.13;;
4198;SDS011;2113;50.946;14.610;2023-08-12T00:30:33;7.97;;;5.88;;
4198;SDS011;2113;50.946;14.610;2023-08-12T00:33:03;7.38;;;5.75;;
4198;SDS011;2113;50.946;14.610;2023-08-12T00:35:31;9.73;;;5.72;;
4198;SDS011;2113;50.946;14.610;2023-08-12T00:38:01;9.95;;;5.90;;
4198;SDS011;2113;50.946;14.610;2023-08-12T00:40:30;9.10;;;5.80;;
4198;SDS011;2113;50.946;14.610;2023-08-12T00:42:58;10.88;;;5.70;;
4198;SDS011;2113;50.946;14.610;2023-08-12T00:45:26;11.20;;;6.10;;
4198;SDS011;2113;50.946;14.610;2023-08-12T00:47:55;8.25;;;5.95;;
4198;SDS011;2113;50.946;14.610;2023-08-12T00:50:25;8.30;;;5.45;;
4198;SDS011;2113;50.946;14.610;2023-08-12T00:52:55;6.55;;;5.63;;
4198;SDS011;2113;50.946;14.610;2023-08-12T00:55:25;10.20;;;6.15;;
4198;SDS011;2113;50.946;14.610;2023-08-12T00:57:53;7.88;;;5.28;;
4198;SDS011;2113;50.946;14.610;2023-08-12T01:00:21;8.93;;;5.10;;
4198;SDS011;2113;50.946;14.610;2023-08-12T01:02:51;11.52;;;7.03;;
4198;SDS011;2113;50.946;14.610;2023-08-12T01:05:20;9.82;;;5.57;;
4198;SDS011;2113;50.946;14.610;2023-08-12T01:07:49;7.30;;;5.32;;
4198;SDS011;2113;50.946;14.610;2023-08-12T01:10:20;6.53;;;5.30;;
4198;SDS011;2113;50.946;14.610;2023-08-12T01:12:52;7.50;;;4.80;;
4198;SDS011;2113;50.946;14.610;2023-08-12T01:15:27;8.15;;;5.10;;
4198;SDS011;2113;50.946;14.610;2023-08-12T01:17:55;9.40;;;5.10;;
4198;SDS011;2113;50.946;14.610;2023-08-12T01:20:27;8.18;;;5.15;;
4198;SDS011;2113;50.946;14.610;2023-08-12T01:25:37;6.38;;;4.18;;
4198;SDS011;2113;50.946;14.610;2023-08-12T01:28:06;8.07;;;5.60;;
4198;SDS011;2113;50.946;14.610;2023-08-12T01:30:37;7.00;;;4.47;;
4198;SDS011;2113;50.946;14.610;2023-08-12T01:33:15;8.82;;;5.60;;
4198;SDS011;2113;50.946;14.610;2023-08-12T01:35:51;6.05;;;4.68;;
4198;SDS011;2113;50.946;14.610;2023-08-12T01:38:29;8.82;;;5.10;;
4198;SDS011;2113;50.946;14.610;2023-08-12T01:40:59;7.45;;;4.40;;
4198;SDS011;2113;50.946;14.610;2023-08-12T01:43:28;11.00;;;5.05;;
4198;SDS011;2113;50.946;14.610;2023-08-12T01:45:58;8.00;;;4.75;;
4198;SDS011;2113;50.946;14.610;2023-08-12T01:48:26;6.47;;;4.93;;
4198;SDS011;2113;50.946;14.610;2023-08-12T01:50:54;7.18;;;5.15;;
4198;SDS011;2113;50.946;14.610;2023-08-12T01:53:23;7.55;;;4.47;;
4198;SDS011;2113;50.946;14.610;2023-08-12T01:55:52;9.27;;;4.70;;
4198;SDS011;2113;50.946;14.610;2023-08-12T01:58:21;6.43;;;4.40;;
4198;SDS011;2113;50.946;14.610;2023-08-12T02:00:49;9.30;;;6.05;;
4198;SDS011;2113;50.946;14.610;2023-08-12T02:03:18;7.90;;;4.95;;
4198;SDS011;2113;50.946;14.610;2023-08-12T02:05:47;6.97;;;4.80;;
4198;SDS011;2113;50.946;14.610;2023-08-12T02:08:15;7.30;;;4.70;;
4198;SDS011;2113;50.946;14.610;2023-08-12T02:10:43;7.35;;;5.55;;
4198;SDS011;2113;50.946;14.610;2023-08-12T02:13:15;5.75;;;4.18;;
4198;SDS011;2113;50.946;14.610;2023-08-12T02:15:43;8.65;;;5.10;;
4198;SDS011;2113;50.946;14.610;2023-08-12T02:18:12;6.43;;;4.60;;
4198;SDS011;2113;50.946;14.610;2023-08-12T02:20:40;6.82;;;5.30;;
4198;SDS011;2113;50.946;14.610;2023-08-12T02:23:09;6.97;;;4.85;;
4198;SDS011;2113;50.946;14.610;2023-08-12T02:25:37;6.07;;;4.28;;
4198;SDS011;2113;50.946;14.610;2023-08-12T02:28:05;6.35;;;4.93;;
4198;SDS011;2113;50.946;14.610;2023-08-12T02:30:36;9.77;;;4.95;;
4198;SDS011;2113;50.946;14.610;2023-08-12T02:33:04;9.18;;;5.05;;
4198;SDS011;2113;50.946;14.610;2023-08-12T02:35:32;7.00;;;4.82;;
4198;SDS011;2113;50.946;14.610;2023-08-12T02:38:03;6.07;;;5.00;;
4198;SDS011;2113;50.946;14.610;2023-08-12T02:40:31;6.65;;;4.65;;
4198;SDS011;2113;50.946;14.610;2023-08-12T02:42:59;10.00;;;5.07;;
4198;SDS011;2113;50.946;14.610;2023-08-12T02:45:28;7.18;;;4.20;;
4198;SDS011;2113;50.946;14.610;2023-08-12T02:47:57;7.10;;;4.53;;
4198;SDS011;2113;50.946;14.610;2023-08-12T02:50:26;7.40;;;5.25;;
4198;SDS011;2113;50.946;14.610;2023-08-12T02:52:54;6.30;;;4.90;;
4198;SDS011;2113;50.946;14.610;2023-08-12T02:55:22;5.70;;;4.50;;
4198;SDS011;2113;50.946;14.610;2023-08-12T02:57:52;8.05;;;5.20;;
4198;SDS011;2113;50.946;14.610;2023-08-12T03:00:20;6.28;;;5.35;;
4198;SDS011;2113;50.946;14.610;2023-08-12T03:02:49;5.88;;;4.70;;
4198;SDS011;2113;50.946;14.610;2023-08-12T03:05:19;11.82;;;5.35;;
4198;SDS011;2113;50.946;14.610;2023-08-12T03:07:48;8.90;;;5.25;;
4198;SDS011;2113;50.946;14.610;2023-08-12T03:10:16;8.88;;;4.85;;
4198;SDS011;2113;50.946;14.610;2023-08-12T03:12:46;10.05;;;4.90;;
4198;SDS011;2113;50.946;14.610;2023-08-12T03:15:14;8.55;;;4.95;;
4198;SDS011;2113;50.946;14.610;2023-08-12T03:17:43;10.23;;;4.90;;
4198;SDS011;2113;50.946;14.610;2023-08-12T03:20:11;8.32;;;4.95;;
4198;SDS011;2113;50.946;14.610;2023-08-12T03:22:41;7.60;;;5.43;;
4198;SDS011;2113;50.946;14.610;2023-08-12T03:25:11;6.35;;;4.78;;
4198;SDS011;2113;50.946;14.610;2023-08-12T03:27:42;5.63;;;4.93;;
4198;SDS011;2113;50.946;14.610;2023-08-12T03:30:11;6.13;;;4.25;;
4198;SDS011;2113;50.946;14.610;2023-08-12T03:32:41;7.03;;;5.28;;
4198;SDS011;2113;50.946;14.610;2023-08-12T03:35:10;5.85;;;4.55;;
4198;SDS011;2113;50.946;14.610;2023-08-12T03:37:38;6.95;;;5.35;;
4198;SDS011;2113;50.946;14.610;2023-08-12T03:40:08;7.47;;;5.07;;
4198;SDS011;2113;50.946;14.610;2023-08-12T03:42:38;7.05;;;5.10;;
4198;SDS011;2113;50.946;14.610;2023-08-12T03:45:07;7.00;;;5.50;;
4198;SDS011;2113;50.946;14.610;2023-08-12T03:47:36;8.38;;;5.80;;
4198;SDS011;2113;50.946;14.610;2023-08-12T03:50:05;8.18;;;5.97;;
4198;SDS011;2113;50.946;14.610;2023-08-12T03:52:34;6.43;;;5.32;;
4198;SDS011;2113;50.946;14.610;2023-08-12T03:55:02;7.22;;;5.32;;
4198;SDS011;2113;50.946;14.610;2023-08-12T03:57:33;9.10;;;5.28;;
4198;SDS011;2113;50.946;14.610;2023-08-12T04:00:02;16.48;;;5.82;;
4198;SDS011;2113;50.946;14.610;2023-08-12T04:02:40;8.45;;;4.80;;
4198;SDS011;2113;50.946;14.610;2023-08-12T04:05:09;9.38;;;5.00;;
4198;SDS011;2113;50.946;14.610;2023-08-12T04:07:37;5.65;;;4.93;;
4198;SDS011;2113;50.946;14.610;2023-08-12T04:10:06;6.55;;;4.85;;
4198;SDS011;2113;50.946;14.610;2023-08-12T04:12:36;6.97;;;5.40;;
4198;SDS011;2113;50.946;14.610;2023-08-12T04:15:05;7.32;;;5.00;;
4198;SDS011;2113;50.946;14.610;2023-08-12T04:17:35;7.82;;;5.53;;
4198;SDS011;2113;50.946;14.610;2023-08-12T04:23:24;8.48;;;5.40;;
4198;SDS011;2113;50.946;14.610;2023-08-12T04:25:53;7.20;;;5.30;;
4198;SDS011;2113;50.946;14.610;2023-08-12T04:28:27;6.20;;;5.20;;
4198;SDS011;2113;50.946;14.610;2023-08-12T04:30:55;6.50;;;5.32;;
4198;SDS011;2113;50.946;14.610;2023-08-12T04:33:25;6.80;;;5.40;;
4198;SDS011;2113;50.946;14.610;2023-08-12T04:35:53;8.77;;;5.68;;
4198;SDS011;2113;50.946;14.610;2023-08-12T04:38:22;6.75;;;5.05;;
4198;SDS011;2113;50.946;14.610;2023-08-12T04:40:53;5.72;;;5.05;;
4198;SDS011;2113;50.946;14.610;2023-08-12T04:43:23;8.60;;;5.50;;
4198;SDS011;2113;50.946;14.610;2023-08-12T04:45:53;7.93;;;5.13;;
4198;SDS011;2113;50.946;14.610;2023-08-12T04:48:21;8.13;;;4.80;;
4198;SDS011;2113;50.946;14.610;2023-08-12T04:50:50;8.38;;;4.65;;
4198;SDS011;2113;50.946;14.610;2023-08-12T04:53:18;9.93;;;5.68;;
4198;SDS011;2113;50.946;14.610;2023-08-12T04:55:49;7.22;;;5.82;;
4198;SDS011;2113;50.946;14.610;2023-08-12T04:58:18;7.50;;;5.05;;
4198;SDS011;2113;50.946;14.610;2023-08-12T05:00:47;7.03;;;5.20;;
4198;SDS011;2113;50.946;14.610;2023-08-12T05:03:18;6.03;;;4.35;;
4198;SDS011;2113;50.946;14.610;2023-08-12T05:05:48;10.40;;;5.78;;
4198;SDS011;2113;50.946;14.610;2023-08-12T05:08:19;7.95;;;4.68;;
4198;SDS011;2113;50.946;14.610;2023-08-12T05:10:48;6.68;;;5.15;;
4198;SDS011;2113;50.946;14.610;2023-08-12T05:13:18;6.05;;;4.90;;
4198;SDS011;2113;50.946;14.610;2023-08-12T05:15:47;6.85;;;4.88;;
4198;SDS011;2113;50.946;14.610;2023-08-12T05:18:18;11.35;;;5.00;;
4198;SDS011;2113;50.946;14.610;2023-08-12T05:20:47;6.43;;;4.47;;
4198;SDS011;2113;50.946;14.610;2023-08-12T05:23:17;6.13;;;4.72;;
4198;SDS011;2113;50.946;14.610;2023-08-12T05:25:45;6.97;;;5.00;;
4198;SDS011;2113;50.946;14.610;2023-08-12T05:28:13;7.38;;;4.93;;
4198;SDS011;2113;50.946;14.610;2023-08-12T05:30:42;5.45;;;4.70;;
4198;SDS011;2113;50.946;14.610;2023-08-12T05:33:10;8.80;;;5.80;;
4198;SDS011;2113;50.946;14.610;2023-08-12T05:35:40;7.90;;;5.22;;
4198;SDS011;2113;50.946;14.610;2023-08-12T05:38:08;5.55;;;4.50;;
4198;SDS011;2113;50.946;14.610;2023-08-12T05:40:36;7.95;;;4.88;;
4198;SDS011;2113;50.946;14.610;2023-08-12T05:43:04;11.13;;;4.88;;
4198;SDS011;2113;50.946;14.610;2023-08-12T05:45:33;6.60;;;4.95;;
4198;SDS011;2113;50.946;14.610;2023-08-12T05:48:01;8.82;;;4.72;;
4198;SDS011;2113;50.946;14.610;2023-08-12T05:50:29;5.63;;;4.35;;
4198;SDS011;2113;50.946;14.610;2023-08-12T05:52:59;8.60;;;4.60;;
4198;SDS011;2113;50.946;14.610;2023-08-12T05:55:27;6.03;;;4.53;;
4198;SDS011;2113;50.946;14.610;2023-08-12T05:57:56;5.95;;;4.70;;
4198;SDS011;2113;50.946;14.610;2023-08-12T06:00:24;5.55;;;4.50;;
4198;SDS011;2113;50.946;14.610;2023-08-12T06:02:52;6.35;;;4.80;;
4198;SDS011;2113;50.946;14.610;2023-08-12T06:05:21;5.40;;;4.55;;
4198;SDS011;2113;50.946;14.610;2023-08-12T06:07:49;10.13;;;3.95;;
4198;SDS011;2113;50.946;14.610;2023-08-12T06:10:19;11.88;;;4.93;;
4198;SDS011;2113;50.946;14.610;2023-08-12T06:12:47;7.10;;;4.47;;
4198;SDS011;2113;50.946;14.610;2023-08-12T06:15:15;6.38;;;4.63;;
4198;SDS011;2113;50.946;14.610;2023-08-12T06:17:44;6.82;;;3.55;;
4198;SDS011;2113;50.946;14.610;2023-08-12T06:20:12;6.40;;;3.80;;
4198;SDS011;2113;50.946;14.610;2023-08-12T06:22:43;7.00;;;4.07;;
4198;SDS011;2113;50.946;14.610;2023-08-12T06:25:12;6.88;;;4.88;;
4198;SDS011;2113;50.946;14.610;2023-08-12T06:27:41;10.27;;;5.03;;
4198;SDS011;2113;50.946;14.610;2023-08-12T06:30:10;6.00;;;4.10;;
4198;SDS011;2113;50.946;14.610;2023-08-12T06:32:40;7.60;;;4.15;;
4198;SDS011;2113;50.946;14.610;2023-08-12T06:35:09;6.43;;;4.78;;
4198;SDS011;2113;50.946;14.610;2023-08-12T06:37:37;6.97;;;4.70;;
4198;SDS011;2113;50.946;14.610;2023-08-12T06:40:06;6.45;;;3.92;;
4198;SDS011;2113;50.946;14.610;2023-08-12T06:42:35;5.72;;;5.05;;
4198;SDS011;2113;50.946;14.610;2023-08-12T06:45:06;5.85;;;4.10;;
4198;SDS011;2113;50.946;14.610;2023-08-12T06:47:36;5.40;;;4.38;;
4198;SDS011;2113;50.946;14.610;2023-08-12T06:50:04;4.65;;;3.72;;
4198;SDS011;2113;50.946;14.610;2023-08-12T06:52:33;5.70;;;3.97;;
4198;SDS011;2113;50.946;14.610;2023-08-12T06:55:01;5.53;;;4.35;;
4198;SDS011;2113;50.946;14.610;2023-08-12T06:57:30;7.57;;;4.47;;
4198;SDS011;2113;50.946;14.610;2023-08-12T06:59:58;9.25;;;4.10;;
4198;SDS011;2113;50.946;14.610;2023-08-12T07:02:29;6.93;;;3.63;;
4198;SDS011;2113;50.946;14.610;2023-08-12T07:04:57;5.85;;;3.67;;
4198;SDS011;2113;50.946;14.610;2023-08-12T07:07:26;4.18;;;3.75;;
4198;SDS011;2113;50.946;14.610;2023-08-12T07:10:03;8.20;;;4.65;;
4198;SDS011;2113;50.946;14.610;2023-08-12T07:12:33;6.85;;;3.63;;
4198;SDS011;2113;50.946;14.610;2023-08-12T07:15:02;8.13;;;3.67;;
4198;SDS011;2113;50.946;14.610;2023-08-12T07:17:32;4.03;;;3.17;;
4198;SDS011;2113;50.946;14.610;2023-08-12T07:20:00;3.67;;;3.13;;
4198;SDS011;2113;50.946;14.610;2023-08-12T07:22:29;5.13;;;3.40;;
4198;SDS011;2113;50.946;14.610;2023-08-12T07:24:57;5.80;;;3.70;;
4198;SDS011;2113;50.946;14.610;2023-08-12T07:27:26;6.93;;;3.50;;
4198;SDS011;2113;50.946;14.610;2023-08-12T07:29:55;6.40;;;3.40;;
4198;SDS011;2113;50.946;14.610;2023-08-12T07:32:23;4.20;;;3.10;;
4198;SDS011;2113;50.946;14.610;2023-08-12T07:34:54;15.63;;;4.13;;
4198;SDS011;2113;50.946;14.610;2023-08-12T07:37:22;4.80;;;3.90;;
4198;SDS011;2113;50.946;14.610;2023-08-12T07:39:53;6.10;;;4.20;;
4198;SDS011;2113;50.946;14.610;2023-08-12T07:42:22;7.63;;;3.63;;
4198;SDS011;2113;50.946;14.610;2023-08-12T07:44:51;4.10;;;3.67;;
4198;SDS011;2113;50.946;14.610;2023-08-12T07:47:19;4.47;;;3.40;;
4198;SDS011;2113;50.946;14.610;2023-08-12T07:49:47;8.00;;;4.10;;
4198;SDS011;2113;50.946;14.610;2023-08-12T07:52:17;4.03;;;3.63;;
4198;SDS011;2113;50.946;14.610;2023-08-12T07:54:45;5.30;;;4.00;;
4198;SDS011;2113;50.946;14.610;2023-08-12T07:57:13;4.70;;;3.50;;
4198;SDS011;2113;50.946;14.610;2023-08-12T07:59:42;7.77;;;3.70;;
4198;SDS011;2113;50.946;14.610;2023-08-12T08:02:10;5.67;;;3.60;;
4198;SDS011;2113;50.946;14.610;2023-08-12T08:04:39;4.90;;;3.97;;
4198;SDS011;2113;50.946;14.610;2023-08-12T08:07:07;5.10;;;3.47;;
4198;SDS011;2113;50.946;14.610;2023-08-12T08:09:37;5.63;;;4.00;;
4198;SDS011;2113;50.946;14.610;2023-08-12T08:12:07;4.53;;;3.50;;
4198;SDS011;2113;50.946;14.610;2023-08-12T08:14:37;4.77;;;3.63;;
4198;SDS011;2113;50.946;14.610;2023-08-12T08:17:05;4.00;;;3.60;;
4198;SDS011;2113;50.946;14.610;2023-08-12T08:19:34;6.80;;;3.67;;
4198;SDS011;2113;50.946;14.610;2023-08-12T08:22:02;8.40;;;4.03;;
4198;SDS011;2113;50.946;14.610;2023-08-12T08:24:31;5.17;;;3.47;;
4198;SDS011;2113;50.946;14.610;2023-08-12T08:27:01;5.77;;;3.80;;
4198;SDS011;2113;50.946;14.610;2023-08-12T08:29:31;4.77;;;3.87;;
4198;SDS011;2113;50.946;14.610;2023-08-12T08:31:59;8.10;;;3.30;;
4198;SDS011;2113;50.946;14.610;2023-08-12T08:34:27;5.80;;;3.53;;
4198;SDS011;2113;50.946;14.610;2023-08-12T08:36:55;3.60;;;3.07;;
4198;SDS011;2113;50.946;14.610;2023-08-12T08:39:23;4.67;;;4.17;;
4198;SDS011;2113;50.946;14.610;2023-08-12T08:41:53;5.70;;;3.40;;
4198;SDS011;2113;50.946;14.610;2023-08-12T08:44:23;5.17;;;3.20;;
4198;SDS011;2113;50.946;14.610;2023-08-12T08:46:59;5.27;;;3.90;;
4198;SDS011;2113;50.946;14.610;2023-08-12T08:49:28;4.03;;;3.57;;
4198;SDS011;2113;50.946;14.610;2023-08-12T08:51:58;4.13;;;3.73;;
4198;SDS011;2113;50.946;14.610;2023-08-12T08:54:27;4.47;;;3.70;;
4198;SDS011;2113;50.946;14.610;2023-08-12T08:56:56;5.10;;;3.40;;
4198;SDS011;2113;50.946;14.610;2023-08-12T08:59:32;3.77;;;2.60;;
4198;SDS011;2113;50.946;14.610;2023-08-12T09:02:00;5.40;;;3.00;;
4198;SDS011;2113;50.946;14.610;2023-08-12T09:04:29;6.07;;;3.77;;
4198;SDS011;2113;50.946;14.610;2023-08-12T09:06:58;4.30;;;2.70;;
4198;SDS011;2113;50.946;14.610;2023-08-12T09:09:28;4.67;;;3.73;;
4198;SDS011;2113;50.946;14.610;2023-08-12T09:11:57;3.53;;;3.00;;
4198;SDS011;2113;50.946;14.610;2023-08-12T09:14:26;4.67;;;3.30;;
4198;SDS011;2113;50.946;14.610;2023-08-12T09:16:56;3.93;;;3.10;;
4198;SDS011;2113;50.946;14.610;2023-08-12T09:19:25;3.67;;;3.10;;
4198;SDS011;2113;50.946;14.610;2023-08-12T09:21:53;5.90;;;3.40;;
4198;SDS011;2113;50.946;14.610;2023-08-12T09:24:23;3.33;;;2.50;;
4198;SDS011;2113;50.946;14.610;2023-08-12T09:26:52;5.23;;;3.70;;
4198;SDS011;2113;50.946;14.610;2023-08-12T09:29:22;7.27;;;3.13;;
4198;SDS011;2113;50.946;14.610;2023-08-12T09:31:51;4.70;;;3.70;;
4198;SDS011;2113;50.946;14.610;2023-08-12T09:34:21;3.47;;;3.03;;
4198;SDS011;2113;50.946;14.610;2023-08-12T09:36:51;4.80;;;3.50;;
4198;SDS011;2113;50.946;14.610;2023-08-12T09:39:20;4.97;;;3.67;;
4198;SDS011;2113;50.946;14.610;2023-08-12T09:41:48;3.10;;;2.80;;
4198;SDS011;2113;50.946;14.610;2023-08-12T09:44:17;4.37;;;2.90;;
4198;SDS011;2113;50.946;14.610;2023-08-12T09:46:45;4.10;;;3.00;;
4198;SDS011;2113;50.946;14.610;2023-08-12T09:49:13;2.80;;;2.50;;
4198;SDS011;2113;50.946;14.610;2023-08-12T09:51:43;4.83;;;3.00;;
4198;SDS011;2113;50.946;14.610;2023-08-12T09:54:14;4.17;;;3.17;;
4198;SDS011;2113;50.946;14.610;2023-08-12T09:56:56;3.33;;;2.73;;
4198;SDS011;2113;50.946;14.610;2023-08-12T09:59:27;3.83;;;2.90;;
4198;SDS011;2113;50.946;14.610;2023-08-12T10:01:59;3.93;;;2.80;;
4198;SDS011;2113;50.946;14.610;2023-08-12T10:04:32;10.00;;;3.37;;
4198;SDS011;2113;50.946;14.610;2023-08-12T10:07:06;4.20;;;3.37;;
4198;SDS011;2113;50.946;14.610;2023-08-12T10:09:35;4.67;;;3.00;;
4198;SDS011;2113;50.946;14.610;2023-08-12T10:12:05;3.10;;;2.80;;
4198;SDS011;2113;50.946;14.610;2023-08-12T10:14:36;3.20;;;2.50;;
4198;SDS011;2113;50.946;14.610;2023-08-12T10:17:05;5.63;;;3.40;;
4198;SDS011;2113;50.946;14.610;2023-08-12T10:19:36;3.33;;;2.70;;
4198;SDS011;2113;50.946;14.610;2023-08-12T10:22:07;5.43;;;2.97;;
4198;SDS011;2113;50.946;14.610;2023-08-12T10:24:38;2.83;;;2.47;;
4198;SDS011;2113;50.946;14.610;2023-08-12T10:27:08;4.37;;;2.50;;
4198;SDS011;2113;50.946;14.610;2023-08-12T10:29:41;2.90;;;2.60;;
4198;SDS011;2113;50.946;14.610;2023-08-12T10:32:10;2.90;;;2.50;;
4198;SDS011;2113;50.946;14.610;2023-08-12T10:34:39;4.70;;;2.83;;
4198;SDS011;2113;50.946;14.610;2023-08-12T10:37:09;4.83;;;3.30;;
4198;SDS011;2113;50.946;14.610;2023-08-12T10:39:39;3.60;;;3.30;;
4198;SDS011;2113;50.946;14.610;2023-08-12T10:42:07;4.50;;;3.17;;
4198;SDS011;2113;50.946;14.610;2023-08-12T10:44:40;4.10;;;3.20;;
4198;SDS011;2113;50.946;14.610;2023-08-12T10:47:17;6.00;;;3.10;;
4198;SDS011;2113;50.946;14.610;2023-08-12T10:49:47;3.77;;;3.03;;
4198;SDS011;2113;50.946;14.610;2023-08-12T10:55:15;5.00;;;3.33;;
4198;SDS011;2113;50.946;14.610;2023-08-12T10:57:44;4.10;;;3.67;;
4198;SDS011;2113;50.946;14.610;2023-08-12T11:00:13;3.77;;;3.30;;
4198;SDS011;2113;50.946;14.610;2023-08-12T11:02:48;3.60;;;3.10;;
4198;SDS011;2113;50.946;14.610;2023-08-12T11:05:18;4.70;;;3.20;;
4198;SDS011;2113;50.946;14.610;2023-08-12T11:07:49;4.87;;;3.20;;
4198;SDS011;2113;50.946;14.610;2023-08-12T11:10:25;3.90;;;3.13;;
4198;SDS011;2113;50.946;14.610;2023-08-12T11:12:57;3.53;;;3.20;;
4198;SDS011;2113;50.946;14.610;2023-08-12T11:15:30;4.60;;;3.53;;
4198;SDS011;2113;50.946;14.610;2023-08-12T11:18:02;4.23;;;2.80;;
4198;SDS011;2113;50.946;14.610;2023-08-12T11:20:31;7.20;;;3.43;;
4198;SDS011;2113;50.946;14.610;2023-08-12T11:23:02;4.60;;;3.20;;
4198;SDS011;2113;50.946;14.610;2023-08-12T11:25:33;4.00;;;3.60;;
4198;SDS011;2113;50.946;14.610;2023-08-12T11:28:03;4.97;;;2.97;;
4198;SDS011;2113;50.946;14.610;2023-08-12T11:30:32;3.37;;;3.07;;
4198;SDS011;2113;50.946;14.610;2023-08-12T11:33:00;3.33;;;2.80;;
4198;SDS011;2113;50.946;14.610;2023-08-12T11:35:30;6.80;;;3.50;;
4198;SDS011;2113;50.946;14.610;2023-08-12T11:37:58;7.30;;;3.20;;
4198;SDS011;2113;50.946;14.610;2023-08-12T11:40:28;7.37;;;3.40;;
4198;SDS011;2113;50.946;14.610;2023-08-12T11:42:56;4.60;;;3.07;;
4198;SDS011;2113;50.946;14.610;2023-08-12T11:45:25;4.90;;;3.20;;
4198;SDS011;2113;50.946;14.610;2023-08-12T11:47:54;4.97;;;3.20;;
4198;SDS011;2113;50.946;14.610;2023-08-12T11:50:23;3.40;;;2.97;;
4198;SDS011;2113;50.946;14.610;2023-08-12T11:52:52;4.50;;;3.83;;
4198;SDS011;2113;50.946;14.610;2023-08-12T11:55:22;5.03;;;3.43;;
4198;SDS011;2113;50.946;14.610;2023-08-12T11:57:53;4.10;;;2.93;;
4198;SDS011;2113;50.946;14.610;2023-08-12T12:00:21;4.80;;;3.37;;
4198;SDS011;2113;50.946;14.610;2023-08-12T12:02:53;4.90;;;3.57;;
4198;SDS011;2113;50.946;14.610;2023-08-12T12:05:23;4.10;;;3.00;;
4198;SDS011;2113;50.946;14.610;2023-08-12T12:07:54;6.23;;;3.67;;
4198;SDS011;2113;50.946;14.610;2023-08-12T12:10:25;4.53;;;3.40;;
4198;SDS011;2113;50.946;14.610;2023-08-12T12:13:02;4.60;;;2.97;;
4198;SDS011;2113;50.946;14.610;2023-08-12T12:15:31;3.50;;;2.77;;
4198;SDS011;2113;50.946;14.610;2023-08-12T12:18:09;5.07;;;3.17;;
4198;SDS011;2113;50.946;14.610;2023-08-12T12:20:41;5.03;;;2.80;;
4198;SDS011;2113;50.946;14.610;2023-08-12T12:23:10;5.37;;;3.50;;
4198;SDS011;2113;50.946;14.610;2023-08-12T12:25:39;4.00;;;3.10;;
4198;SDS011;2113;50.946;14.610;2023-08-12T12:28:10;5.30;;;3.40;;
4198;SDS011;2113;50.946;14.610;2023-08-12T12:30:38;4.40;;;3.20;;
4198;SDS011;2113;50.946;14.610;2023-08-12T12:33:07;3.60;;;2.93;;
4198;SDS011;2113;50.946;14.610;2023-08-12T12:35:35;4.03;;;2.57;;
4198;SDS011;2113;50.946;14.610;2023-08-12T12:38:21;4.20;;;3.10;;
4198;SDS011;2113;50.946;14.610;2023-08-12T12:40:49;3.80;;;2.57;;
4198;SDS011;2113;50.946;14.610;2023-08-12T12:43:19;4.00;;;2.73;;
4198;SDS011;2113;50.946;14.610;2023-08-12T12:45:51;3.37;;;2.97;;
4198;SDS011;2113;50.946;14.610;2023-08-12T12:48:19;5.93;;;2.87;;
4198;SDS011;2113;50.946;14.610;2023-08-12T12:50:47;3.83;;;3.00;;
4198;SDS011;2113;50.946;14.610;2023-08-12T12:53:15;5.30;;;2.43;;
4198;SDS011;2113;50.946;14.610;2023-08-12T12:55:44;3.37;;;2.53;;
4198;SDS011;2113;50.946;14.610;2023-08-12T12:58:12;3.83;;;2.70;;
4198;SDS011;2113;50.946;14.610;2023-08-12T13:00:42;3.57;;;2.90;;
4198;SDS011;2113;50.946;14.610;2023-08-12T13:03:10;4.40;;;2.83;;
4198;SDS011;2113;50.946;14.610;2023-08-12T13:05:38;3.40;;;2.70;;
4198;SDS011;2113;50.946;14.610;2023-08-12T13:08:07;3.63;;;2.90;;
4198;SDS011;2113;50.946;14.610;2023-08-12T13:10:35;3.60;;;2.70;;
4198;SDS011;2113;50.946;14.610;2023-08-12T13:13:03;7.57;;;3.10;;
4198;SDS011;2113;50.946;14.610;2023-08-12T13:15:33;4.70;;;3.10;;
4198;SDS011;2113;50.946;14.610;2023-08-12T13:18:03;3.07;;;2.70;;
4198;SDS011;2113;50.946;14.610;2023-08-12T13:20:31;4.20;;;3.10;;
4198;SDS011;2113;50.946;14.610;2023-08-12T13:23:00;2.97;;;2.23;;
4198;SDS011;2113;50.946;14.610;2023-08-12T13:25:29;4.27;;;3.03;;
4198;SDS011;2113;50.946;14.610;2023-08-12T13:27:59;6.40;;;2.83;;
4198;SDS011;2113;50.946;14.610;2023-08-12T13:30:27;4.50;;;2.87;;
4198;SDS011;2113;50.946;14.610;2023-08-12T13:32:56;4.50;;;3.13;;
4198;SDS011;2113;50.946;14.610;2023-08-12T13:35:29;8.33;;;3.73;;
4198;SDS011;2113;50.946;14.610;2023-08-12T13:38:00;3.07;;;2.33;;
4198;SDS011;2113;50.946;14.610;2023-08-12T13:40:28;4.30;;;2.87;;
4198;SDS011;2113;50.946;14.610;2023-08-12T13:42:59;5.00;;;3.20;;
4198;SDS011;2113;50.946;14.610;2023-08-12T13:45:27;5.33;;;2.73;;
4198;SDS011;2113;50.946;14.610;2023-08-12T13:47:55;4.70;;;3.07;;
4198;SDS011;2113;50.946;14.610;2023-08-12T13:50:24;4.57;;;2.90;;
4198;SDS011;2113;50.946;14.610;2023-08-12T13:52:53;4.07;;;2.63;;
4198;SDS011;2113;50.946;14.610;2023-08-12T13:55:22;3.80;;;3.00;;
4198;SDS011;2113;50.946;14.610;2023-08-12T13:57:50;4.70;;;3.23;;
4198;SDS011;2113;50.946;14.610;2023-08-12T14:00:19;4.83;;;2.70;;
4198;SDS011;2113;50.946;14.610;2023-08-12T14:02:47;3.97;;;3.10;;
4198;SDS011;2113;50.946;14.610;2023-08-12T14:05:16;8.63;;;2.93;;
4198;SDS011;2113;50.946;14.610;2023-08-12T14:07:44;7.90;;;3.40;;
4198;SDS011;2113;50.946;14.610;2023-08-12T14:10:14;4.90;;;3.40;;
4198;SDS011;2113;50.946;14.610;2023-08-12T14:12:43;4.60;;;2.77;;
4198;SDS011;2113;50.946;14.610;2023-08-12T14:15:11;6.00;;;3.93;;
4198;SDS011;2113;50.946;14.610;2023-08-12T14:17:40;6.40;;;3.60;;
4198;SDS011;2113;50.946;14.610;2023-08-12T14:20:08;4.77;;;3.00;;
4198;SDS011;2113;50.946;14.610;2023-08-12T14:22:37;7.27;;;5.00;;
4198;SDS011;2113;50.946;14.610;2023-08-12T14:25:06;6.10;;;3.90;;
4198;SDS011;2113;50.946;14.610;2023-08-12T14:27:36;7.50;;;6.43;;
4198;SDS011;2113;50.946;14.610;2023-08-12T14:30:05;8.07;;;7.27;;
4198;SDS011;2113;50.946;14.610;2023-08-12T14:32:34;9.30;;;7.63;;
4198;SDS011;2113;50.946;14.610;2023-08-12T14:35:03;6.33;;;5.73;;
4198;SDS011;2113;50.946;14.610;2023-08-12T14:37:32;7.30;;;5.43;;
4198;SDS011;2113;50.946;14.610;2023-08-12T14:40:00;6.43;;;4.03;;
4198;SDS011;2113;50.946;14.610;2023-08-12T14:42:30;5.93;;;5.33;;
4198;SDS011;2113;50.946;14.610;2023-08-12T14:45:00;11.63;;;5.00;;
4198;SDS011;2113;50.946;14.610;2023-08-12T14:47:28;6.90;;;3.80;;
4198;SDS011;2113;50.946;14.610;2023-08-12T14:49:57;5.90;;;4.00;;
4198;SDS011;2113;50.946;14.610;2023-08-12T14:52:25;4.23;;;3.30;;
4198;SDS011;2113;50.946;14.610;2023-08-12T14:54:54;4.37;;;3.60;;
4198;SDS011;2113;50.946;14.610;2023-08-12T14:57:22;4.13;;;3.03;;
4198;SDS011;2113;50.946;14.610;2023-08-12T14:59:50;9.20;;;4.10;;
4198;SDS011;2113;50.946;14.610;2023-08-12T15:02:20;4.70;;;2.93;;
4198;SDS011;2113;50.946;14.610;2023-08-12T15:04:50;4.60;;;3.70;;
4198;SDS011;2113;50.946;14.610;2023-08-12T15:07:19;6.40;;;3.43;;
4198;SDS011;2113;50.946;14.610;2023-08-12T15:09:48;4.30;;;3.40;;
4198;SDS011;2113;50.946;14.610;2023-08-12T15:12:18;4.77;;;3.40;;
4198;SDS011;2113;50.946;14.610;2023-08-12T15:14:47;3.70;;;3.37;;
4198;SDS011;2113;50.946;14.610;2023-08-12T15:17:15;5.13;;;3.23;;
4198;SDS011;2113;50.946;14.610;2023-08-12T15:19:45;4.83;;;3.47;;
4198;SDS011;2113;50.946;14.610;2023-08-12T15:22:13;4.40;;;2.83;;